KAEX/AEX METAR and TAF weather

Enter ICAO airport designator
Station Type Date Time Source
KAEX METAR 2021/09/16 22:21 UTC NOAA

KAEX 162221Z 03007KT 10SM BKN015 OVC036 27/23 A2981 RMK AO2 T02670233


Station Type Date Time Source
KAEX Decoded METAR 2021/09/16 22:21 UTC NOAA

ALEXANDRIA INTERNATIONAL AIRPORT, LA, United States (KAEX) 31-33N 092-56W 27M
Sep 16, 2021 - 06:21 PM EDT / 2021.09.16 2221 UTC
Wind: from the NNE (030 degrees) at 8 MPH (7 KT):0
Visibility: 10 mile(s):0
Sky conditions: overcast
Temperature: 80.1 F (26.7 C)
Dew Point: 73.9 F (23.3 C)
Relative Humidity: 81%
Pressure (altimeter): 29.81 in. Hg (1009 hPa)
ob: KAEX 162221Z 03007KT 10SM BKN015 OVC036 27/23 A2981 RMK AO2 T02670233
cycle: 22

Station Type Date Time Source
KAEX TAF 2021/09/16 22:06 UTC NOAA

TAF
AMD KAEX 162205Z 1622/1718 34008KT P6SM VCSH SCT007 OVC029
TEMPO 1622/1702 4SM BR BKN015 OVC029
FM170200 05005KT P6SM BKN017 OVC030
TEMPO 1702/1706 -DZ SCT014 OVC023
FM170600 08003KT 4SM BR OVC008
FM171400 14006KT 6SM BR OVC015 PROB30 1714/1718 4SM -RA BR OVC007

Example: see airport list